createdAt,value
2023-04-20T00:00:08.947Z,31.75
2023-04-20T00:02:56.105Z,30.58
2023-04-20T00:05:23.598Z,30.48
2023-04-20T00:07:50.681Z,32.95
2023-04-20T00:10:17.992Z,30.02
2023-04-20T00:12:45.099Z,32.97
2023-04-20T00:15:12.449Z,29.73
2023-04-20T00:17:41.688Z,34.58
2023-04-20T00:20:12.057Z,31.83
2023-04-20T00:22:39.104Z,30.35
2023-04-20T00:25:09.311Z,35.22
2023-04-20T00:27:38.828Z,31.38
2023-04-20T00:30:07.904Z,31.08
2023-04-20T00:32:34.984Z,32.63
2023-04-20T00:35:02.316Z,32.75
2023-04-20T00:37:31.805Z,33.25
2023-04-20T00:39:59.197Z,31.45
2023-04-20T00:42:26.206Z,36.55
2023-04-20T00:44:53.556Z,33.08
2023-04-20T00:47:22.809Z,39.13
2023-04-20T00:49:52.918Z,34.70
2023-04-20T00:52:21.307Z,36.30
2023-04-20T00:54:48.956Z,35.28
2023-04-20T00:57:19.883Z,35.63
2023-04-20T00:59:47.246Z,33.60
2023-04-20T01:02:14.286Z,33.70
2023-04-20T01:04:41.801Z,34.95
2023-04-20T01:07:08.871Z,34.70
2023-04-20T01:09:39.082Z,33.03
2023-04-20T01:12:07.053Z,33.25
2023-04-20T01:14:36.911Z,32.30
2023-04-20T01:17:06.376Z,33.30
2023-04-20T01:19:33.807Z,29.30
2023-04-20T01:22:00.864Z,36.30
2023-04-20T01:24:28.233Z,32.00
2023-04-20T01:26:55.294Z,33.40
2023-04-20T01:29:22.628Z,33.65
2023-04-20T01:31:51.949Z,40.05
2023-04-20T01:34:21.883Z,32.22
2023-04-20T01:36:53.678Z,29.13
2023-04-20T01:39:21.349Z,30.17
2023-04-20T01:41:48.468Z,31.02
2023-04-20T01:44:18.053Z,28.38
2023-04-20T01:46:45.137Z,28.15
2023-04-20T01:49:12.461Z,33.53
2023-04-20T01:51:44.716Z,31.20
2023-04-20T01:54:14.502Z,31.02
2023-04-20T01:56:41.541Z,31.60
2023-04-20T01:59:08.879Z,30.95
2023-04-20T02:01:35.892Z,31.02
2023-04-20T02:04:03.221Z,29.30
2023-04-20T02:06:32.749Z,29.70
2023-04-20T02:09:00.163Z,31.65
2023-04-20T02:11:28.580Z,31.92
2023-04-20T02:13:55.953Z,33.65
2023-04-20T02:16:23.532Z,33.55
2023-04-20T02:18:50.814Z,34.35
2023-04-20T02:21:18.783Z,33.75
2023-04-20T02:23:48.757Z,30.30
2023-04-20T02:26:18.011Z,31.77
2023-04-20T02:28:47.786Z,33.42
2023-04-20T02:31:14.797Z,31.38
2023-04-20T02:33:42.168Z,34.88
2023-04-20T02:36:09.563Z,31.88
2023-04-20T02:38:36.889Z,30.20
2023-04-20T02:41:03.975Z,32.58
2023-04-20T02:43:33.485Z,30.65
2023-04-20T02:46:00.508Z,33.72
2023-04-20T02:48:27.887Z,30.27
2023-04-20T02:50:57.808Z,29.88
2023-04-20T02:53:25.162Z,31.85
2023-04-20T02:55:52.154Z,30.25
2023-04-20T02:58:19.566Z,31.75
2023-04-20T03:03:24.763Z,30.33
2023-04-20T03:05:56.630Z,32.53
2023-04-20T03:08:26.073Z,30.00
2023-04-20T03:10:53.416Z,30.63
2023-04-20T03:13:20.453Z,33.75
2023-04-20T03:15:50.257Z,32.50
2023-04-20T03:18:20.400Z,30.65
2023-04-20T03:20:47.719Z,28.73
2023-04-20T03:23:14.759Z,31.73
2023-04-20T03:25:44.575Z,27.52
2023-04-20T03:28:15.346Z,26.08
2023-04-20T03:30:45.058Z,27.88
2023-04-20T03:33:12.157Z,29.23
2023-04-20T03:35:39.587Z,31.52
2023-04-20T03:38:06.652Z,32.20
2023-04-20T03:40:34.121Z,29.55
2023-04-20T03:43:03.608Z,32.10
2023-04-20T03:45:30.961Z,31.40
2023-04-20T03:47:58.135Z,29.13
2023-04-20T03:50:28.079Z,29.75
2023-04-20T03:52:55.217Z,29.55
2023-04-20T03:55:22.604Z,31.15
2023-04-20T03:57:52.243Z,30.40
2023-04-20T04:00:19.591Z,30.77
2023-04-20T04:02:49.088Z,30.33
2023-04-20T04:05:17.007Z,30.98
2023-04-20T04:07:44.267Z,32.97
2023-04-20T04:10:14.141Z,32.33
2023-04-20T04:12:41.215Z,38.40
2023-04-20T04:15:09.244Z,41.63
2023-04-20T04:17:36.366Z,45.72
2023-04-20T04:20:06.297Z,47.65
2023-04-20T04:22:33.443Z,43.95
2023-04-20T04:25:00.843Z,49.38
2023-04-20T04:27:30.215Z,49.00
2023-04-20T04:29:57.780Z,49.28
2023-04-20T04:32:25.058Z,45.22
2023-04-20T04:34:52.604Z,43.45
2023-04-20T04:37:23.846Z,45.15
2023-04-20T04:39:51.247Z,42.83
2023-04-20T04:42:18.271Z,43.60
2023-04-20T04:44:47.828Z,43.30
2023-04-20T04:47:14.884Z,42.55
2023-04-20T04:49:44.396Z,44.33
2023-04-20T04:52:11.533Z,45.70
2023-04-20T04:54:38.898Z,40.47
2023-04-20T04:57:06.067Z,45.63
2023-04-20T04:59:33.438Z,41.33
2023-04-20T05:02:00.541Z,42.70
2023-04-20T05:04:27.996Z,37.58
2023-04-20T05:06:55.068Z,38.25
2023-04-20T05:09:22.471Z,37.70
2023-04-20T05:11:49.616Z,36.83
2023-04-20T05:14:16.974Z,34.72
2023-04-20T05:16:47.096Z,37.03
2023-04-20T05:19:14.728Z,38.00
2023-04-20T05:21:44.300Z,34.30
2023-04-20T05:24:11.728Z,36.30
2023-04-20T05:26:41.229Z,37.92
2023-04-20T05:29:08.606Z,35.55
2023-04-20T05:31:35.679Z,40.13
2023-04-20T05:34:03.097Z,38.63
2023-04-20T05:36:30.546Z,38.17
2023-04-20T05:38:57.869Z,38.53
2023-04-20T05:41:25.236Z,38.42
2023-04-20T05:43:55.405Z,42.83
2023-04-20T05:46:23.035Z,36.08
2023-04-20T05:48:59.481Z,36.58
2023-04-20T05:51:26.743Z,35.35
2023-04-20T05:53:54.187Z,34.33
2023-04-20T05:56:23.533Z,32.20
2023-04-20T05:58:51.384Z,37.63
2023-04-20T06:01:18.903Z,42.00
2023-04-20T06:03:51.671Z,33.60
2023-04-20T06:06:21.333Z,35.85
2023-04-20T06:08:48.836Z,33.13
2023-04-20T06:11:18.415Z,32.75
2023-04-20T06:13:51.181Z,31.98
2023-04-20T06:16:18.279Z,31.75
2023-04-20T06:18:47.869Z,30.40
2023-04-20T06:21:15.325Z,31.33
2023-04-20T06:23:42.794Z,33.13
2023-04-20T06:26:12.258Z,30.75
2023-04-20T06:28:41.911Z,30.02
2023-04-20T06:31:15.222Z,30.88
2023-04-20T06:33:48.183Z,29.50
2023-04-20T06:36:17.754Z,31.92
2023-04-20T06:38:45.156Z,30.48
2023-04-20T06:41:14.447Z,29.13
2023-04-20T06:43:41.871Z,29.55
2023-04-20T06:46:11.904Z,31.02
2023-04-20T06:48:39.327Z,27.95
2023-04-20T06:51:06.471Z,27.98
2023-04-20T06:53:36.257Z,26.40
2023-04-20T06:56:03.338Z,29.65
2023-04-20T06:58:30.769Z,28.77
2023-04-20T07:00:57.810Z,31.20
2023-04-20T07:03:25.410Z,30.95
2023-04-20T07:05:54.953Z,26.85
2023-04-20T07:08:22.388Z,27.98
2023-04-20T07:10:49.425Z,26.88
2023-04-20T07:13:19.420Z,27.50
2023-04-20T07:15:46.693Z,29.98
2023-04-20T07:18:14.114Z,26.30
2023-04-20T07:20:41.227Z,27.60
2023-04-20T07:23:08.611Z,28.17
2023-04-20T07:25:35.615Z,26.60
2023-04-20T07:28:03.011Z,30.25
2023-04-20T07:30:30.118Z,30.65
2023-04-20T07:32:59.757Z,31.40
2023-04-20T07:35:29.335Z,32.60
2023-04-20T07:37:58.963Z,29.75
2023-04-20T07:40:26.161Z,28.83
2023-04-20T07:42:53.511Z,32.95
2023-04-20T07:45:22.892Z,29.48
2023-04-20T07:47:50.329Z,35.88
2023-04-20T07:50:17.764Z,33.13
2023-04-20T07:52:47.374Z,35.33
2023-04-20T07:55:14.555Z,32.63
2023-04-20T07:57:41.917Z,31.30
2023-04-20T08:00:09.588Z,29.70
2023-04-20T08:02:37.129Z,33.65
2023-04-20T08:05:05.120Z,32.25
2023-04-20T08:07:32.685Z,28.33
2023-04-20T08:09:59.748Z,29.90
2023-04-20T08:12:27.352Z,27.75
2023-04-20T08:14:54.420Z,28.67
2023-04-20T08:17:24.276Z,26.63
2023-04-20T08:19:51.878Z,30.08
2023-04-20T08:22:19.213Z,29.90
2023-04-20T08:24:46.233Z,30.50
2023-04-20T08:27:13.777Z,30.88
2023-04-20T08:29:43.399Z,29.92
2023-04-20T08:32:10.877Z,31.40
2023-04-20T08:34:38.697Z,32.95
2023-04-20T08:37:06.290Z,36.05
2023-04-20T08:39:35.799Z,35.22
2023-04-20T08:42:03.225Z,44.10
2023-04-20T08:44:30.412Z,39.45
2023-04-20T08:46:58.056Z,38.35
2023-04-20T08:49:28.372Z,40.60
2023-04-20T08:51:55.766Z,43.88
2023-04-20T08:54:24.315Z,39.95
2023-04-20T08:56:52.244Z,40.13
2023-04-20T08:59:21.837Z,39.47
2023-04-20T09:01:49.207Z,35.17
2023-04-20T09:04:26.964Z,35.38
2023-04-20T09:06:57.146Z,39.30
2023-04-20T09:09:25.176Z,35.10
2023-04-20T09:12:07.966Z,43.53
2023-04-20T09:14:46.061Z,40.60
2023-04-20T09:17:15.336Z,39.33
2023-04-20T09:19:44.992Z,40.53
2023-04-20T09:22:12.578Z,43.78
2023-04-20T09:24:40.721Z,40.25
2023-04-20T09:27:22.324Z,39.30
2023-04-20T09:29:59.021Z,39.38
2023-04-20T09:32:27.312Z,41.78
2023-04-20T09:34:57.118Z,39.38
2023-04-20T09:37:24.838Z,40.60
2023-04-20T09:39:53.560Z,40.45
2023-04-20T09:42:21.803Z,40.40
2023-04-20T09:44:52.244Z,37.83
2023-04-20T09:47:22.910Z,36.42
2023-04-20T09:49:50.620Z,35.95
2023-04-20T09:52:19.059Z,35.85
2023-04-20T09:54:47.667Z,34.20
2023-04-20T09:57:17.434Z,30.50
2023-04-20T09:59:46.808Z,31.23
2023-04-20T10:02:16.760Z,29.38
2023-04-20T10:04:56.920Z,30.90
2023-04-20T10:07:29.691Z,29.98
2023-04-20T10:10:12.263Z,34.20
2023-04-20T10:12:55.085Z,32.08
2023-04-20T10:15:23.345Z,28.55
2023-04-20T10:17:51.097Z,27.00
2023-04-20T10:20:23.609Z,27.23
2023-04-20T10:23:08.537Z,27.53
2023-04-20T10:25:35.617Z,26.90
2023-04-20T10:28:05.281Z,23.65
2023-04-20T10:30:37.895Z,28.05
2023-04-20T10:33:10.787Z,27.17
2023-04-20T10:35:46.884Z,30.43
2023-04-20T10:38:14.514Z,27.25
2023-04-20T10:40:41.949Z,32.35
2023-04-20T10:43:19.364Z,33.55
2023-04-20T10:45:49.154Z,30.52
2023-04-20T10:48:18.134Z,29.90
2023-04-20T10:50:45.593Z,30.15
2023-04-20T10:53:24.577Z,26.08
2023-04-20T10:56:09.856Z,29.40
2023-04-20T10:58:37.328Z,27.83
2023-04-20T11:01:05.214Z,29.27
2023-04-20T11:03:33.585Z,26.88
2023-04-20T11:06:01.596Z,28.48
2023-04-20T11:08:39.910Z,30.38
2023-04-20T11:11:24.334Z,25.17
2023-04-20T11:14:04.619Z,26.02
2023-04-20T11:16:44.309Z,30.23
2023-04-20T11:19:23.343Z,24.58
2023-04-20T11:21:50.828Z,26.95
2023-04-20T11:24:23.178Z,24.45
2023-04-20T11:26:51.666Z,26.42
2023-04-20T11:29:39.765Z,28.00
2023-04-20T11:32:09.548Z,28.80
2023-04-20T11:34:38.858Z,26.23
2023-04-20T11:37:10.769Z,26.80
2023-04-20T11:39:40.666Z,26.92
2023-04-20T11:42:07.801Z,25.25
2023-04-20T11:44:35.281Z,30.20
2023-04-20T11:47:04.669Z,28.95
2023-04-20T11:49:34.644Z,25.75
2023-04-20T11:52:04.228Z,32.15
2023-04-20T11:54:31.756Z,31.65
2023-04-20T11:56:59.063Z,33.63
2023-04-20T11:59:30.905Z,33.65
2023-04-20T12:01:57.943Z,29.38
2023-04-20T12:04:25.879Z,29.77
2023-04-20T12:06:53.175Z,30.50
2023-04-20T12:09:20.761Z,29.20
2023-04-20T12:11:47.987Z,30.85
2023-04-20T12:14:15.396Z,29.40
2023-04-20T12:16:44.987Z,28.35
2023-04-20T12:19:14.928Z,28.45
2023-04-20T12:21:42.024Z,34.03
2023-04-20T12:24:09.457Z,28.30
2023-04-20T12:26:38.663Z,26.70
2023-04-20T12:29:06.404Z,29.70
2023-04-20T12:31:33.562Z,28.65
2023-04-20T12:34:00.969Z,27.50
2023-04-20T12:36:28.149Z,29.17
2023-04-20T12:38:58.068Z,29.02
2023-04-20T12:41:27.674Z,32.33
2023-04-20T12:43:55.084Z,30.88
2023-04-20T12:46:26.779Z,31.90
2023-04-20T12:48:56.441Z,34.03
2023-04-20T12:51:25.775Z,31.05
2023-04-20T12:53:53.199Z,30.15
2023-04-20T12:56:20.238Z,29.60
2023-04-20T12:58:50.049Z,28.02
2023-04-20T13:01:17.159Z,29.13
2023-04-20T13:03:44.642Z,30.65
2023-04-20T13:06:14.282Z,29.65
2023-04-20T13:08:41.951Z,34.30
2023-04-20T13:11:11.537Z,29.83
2023-04-20T13:13:38.865Z,35.15
2023-04-20T13:16:06.186Z,32.80
2023-04-20T13:18:34.319Z,32.20
2023-04-20T13:21:01.382Z,31.65
2023-04-20T13:23:31.235Z,31.88
2023-04-20T13:25:58.324Z,35.72
2023-04-20T13:28:25.778Z,30.23
2023-04-20T13:30:53.996Z,32.10
2023-04-20T13:33:21.519Z,31.20
2023-04-20T13:35:48.900Z,35.25
2023-04-20T13:38:18.540Z,31.05
2023-04-20T13:40:48.279Z,31.02
2023-04-20T13:43:15.698Z,31.23
2023-04-20T13:45:43.315Z,32.70
2023-04-20T13:48:13.540Z,35.58
2023-04-20T13:50:40.609Z,30.50
2023-04-20T13:53:10.420Z,38.03
2023-04-20T13:55:39.687Z,31.67
2023-04-20T13:58:07.452Z,34.80
2023-04-20T14:00:34.870Z,31.38
2023-04-20T14:03:04.749Z,33.35
2023-04-20T14:05:31.920Z,31.27
2023-04-20T14:08:01.733Z,31.77
2023-04-20T14:10:29.369Z,29.10
2023-04-20T14:12:56.910Z,29.90
2023-04-20T14:15:24.025Z,28.92
2023-04-20T14:17:52.874Z,31.08
2023-04-20T14:20:20.182Z,30.17
2023-04-20T14:22:50.077Z,32.53
2023-04-20T14:25:17.255Z,32.70
2023-04-20T14:27:44.851Z,30.90
2023-04-20T14:30:12.905Z,31.45
2023-04-20T14:32:40.751Z,32.33
2023-04-20T14:35:08.353Z,32.85
2023-04-20T14:37:35.750Z,31.85
2023-04-20T14:40:02.851Z,32.38
2023-04-20T14:42:30.347Z,32.25
2023-04-20T14:44:59.020Z,30.52
2023-04-20T14:47:28.684Z,34.53
2023-04-20T14:49:55.832Z,29.73
2023-04-20T14:52:23.189Z,34.40
2023-04-20T14:54:50.259Z,34.45
2023-04-20T14:57:17.730Z,31.88
2023-04-20T14:59:44.763Z,33.92
2023-04-20T15:02:16.486Z,32.17
2023-04-20T15:04:44.038Z,33.05
2023-04-20T15:07:11.634Z,32.33
2023-04-20T15:09:38.737Z,32.70
2023-04-20T15:12:06.138Z,33.60
2023-04-20T15:14:35.709Z,33.95
2023-04-20T15:17:03.140Z,33.78
2023-04-20T15:19:30.558Z,33.35
2023-04-20T15:21:58.611Z,40.83
2023-04-20T15:24:28.226Z,34.10
2023-04-20T15:26:55.644Z,33.97
2023-04-20T15:29:22.674Z,38.72
2023-04-20T15:31:50.093Z,31.63
2023-04-20T15:34:21.881Z,32.55
2023-04-20T15:36:51.662Z,35.40
2023-04-20T15:39:21.042Z,34.45
2023-04-20T15:41:48.554Z,32.97
2023-04-20T15:44:18.445Z,33.30
2023-04-20T15:46:45.948Z,34.63
2023-04-20T15:49:13.081Z,32.53
2023-04-20T15:51:42.562Z,35.00
2023-04-20T15:54:09.711Z,32.53
2023-04-20T15:56:37.059Z,38.45
2023-04-20T15:59:06.603Z,36.65
2023-04-20T16:01:34.372Z,35.83
2023-04-20T16:04:04.166Z,35.83
2023-04-20T16:06:31.825Z,36.67
2023-04-20T16:08:58.991Z,37.25
2023-04-20T16:11:26.284Z,36.83
2023-04-20T16:13:56.232Z,42.25
2023-04-20T16:16:26.308Z,34.10
2023-04-20T16:18:57.063Z,34.80
2023-04-20T16:21:24.452Z,37.00
2023-04-20T16:23:55.860Z,38.85
2023-04-20T16:26:23.298Z,39.13
2023-04-20T16:28:50.337Z,38.53
2023-04-20T16:31:17.841Z,39.47
2023-04-20T16:33:45.383Z,41.17
2023-04-20T16:36:15.258Z,35.25
2023-04-20T16:38:45.151Z,35.65
2023-04-20T16:41:12.516Z,35.15
2023-04-20T16:43:39.541Z,33.35
2023-04-20T16:46:12.071Z,36.72
2023-04-20T16:48:39.158Z,39.83
2023-04-20T16:51:08.747Z,36.78
2023-04-20T16:53:35.898Z,40.45
2023-04-20T16:56:03.328Z,36.42
2023-04-20T16:58:30.391Z,38.40
2023-04-20T17:00:57.825Z,36.90
2023-04-20T17:03:25.167Z,38.67
2023-04-20T17:05:52.724Z,40.65
2023-04-20T17:08:21.346Z,39.80
2023-04-20T17:10:48.677Z,39.42
2023-04-20T17:13:15.767Z,39.33
2023-04-20T17:15:45.587Z,35.33
2023-04-20T17:18:12.861Z,37.13
2023-04-20T17:20:41.297Z,39.97
2023-04-20T17:23:08.402Z,40.25
2023-04-20T17:25:35.848Z,42.05
2023-04-20T17:28:03.133Z,42.53
2023-04-20T17:30:30.509Z,39.70
2023-04-20T17:32:59.832Z,40.65
2023-04-20T17:35:27.307Z,42.35
2023-04-20T17:37:56.926Z,43.03
2023-04-20T17:40:24.324Z,39.10
2023-04-20T17:42:51.445Z,44.08
2023-04-20T17:45:21.117Z,44.83
2023-04-20T17:47:48.225Z,46.65
2023-04-20T17:50:15.768Z,49.15
2023-04-20T17:52:45.291Z,49.15
2023-04-20T17:55:12.652Z,46.13
2023-04-20T17:57:39.837Z,45.92
2023-04-20T18:00:08.187Z,49.25
2023-04-20T18:02:35.963Z,78.28
2023-04-20T18:05:04.433Z,47.80
2023-04-20T18:07:31.626Z,43.95
2023-04-20T18:09:58.965Z,51.17
2023-04-20T18:12:26.023Z,56.45
2023-04-20T18:14:53.430Z,49.63
2023-04-20T18:17:20.550Z,51.05
2023-04-20T18:19:47.917Z,45.67
2023-04-20T18:22:17.383Z,49.15
2023-04-20T18:24:46.933Z,51.15
2023-04-20T18:27:13.949Z,53.20
2023-04-20T18:29:41.279Z,49.33
2023-04-20T18:32:08.366Z,55.45
2023-04-20T18:34:35.741Z,52.80
2023-04-20T18:37:03.368Z,49.65
2023-04-20T18:39:30.807Z,58.10
2023-04-20T18:42:00.076Z,55.75
2023-04-20T18:44:27.485Z,56.80
2023-04-20T18:46:54.637Z,64.57
2023-04-20T18:49:22.024Z,69.18
2023-04-20T18:51:49.253Z,63.75
2023-04-20T18:54:16.796Z,68.63
2023-04-20T18:56:44.015Z,64.40
2023-04-20T18:59:11.505Z,72.60
2023-04-20T19:01:38.625Z,66.82
2023-04-20T19:04:09.239Z,61.67
2023-04-20T19:06:37.957Z,60.75
2023-04-20T19:09:08.435Z,58.63
2023-04-20T19:11:38.108Z,56.80
2023-04-20T19:14:10.101Z,60.10
2023-04-20T19:16:37.549Z,58.08
2023-04-20T19:19:04.951Z,58.22
2023-04-20T19:21:34.399Z,49.15
2023-04-20T19:24:01.722Z,54.90
2023-04-20T19:26:28.859Z,86.28
2023-04-20T19:28:56.194Z,58.35
2023-04-20T19:31:23.263Z,54.75
2023-04-20T19:33:50.681Z,59.60
2023-04-20T19:36:18.052Z,57.92
2023-04-20T19:38:45.926Z,58.15
2023-04-20T19:41:17.917Z,57.35
2023-04-20T19:43:45.229Z,59.53
2023-04-20T19:46:12.441Z,61.47
2023-04-20T19:48:42.347Z,63.30
2023-04-20T19:51:09.450Z,59.85
2023-04-20T19:53:36.967Z,65.43
2023-04-20T19:56:06.553Z,84.10
2023-04-20T19:58:36.713Z,81.47
2023-04-20T20:01:04.637Z,105.15
2023-04-20T20:03:34.511Z,98.75
2023-04-20T20:06:04.427Z,109.78
2023-04-20T20:08:31.893Z,115.97
2023-04-20T20:10:58.997Z,101.88
2023-04-20T20:13:28.844Z,96.50
2023-04-20T20:16:00.674Z,104.95
2023-04-20T20:18:28.077Z,99.80
2023-04-20T20:20:57.364Z,108.97
2023-04-20T20:23:25.032Z,100.85
2023-04-20T20:25:54.396Z,98.22
2023-04-20T20:28:21.796Z,87.68
2023-04-20T20:30:51.334Z,96.75
2023-04-20T20:33:20.835Z,84.13
2023-04-20T20:35:50.379Z,90.97
2023-04-20T20:38:17.724Z,92.75
2023-04-20T20:40:44.791Z,91.57
2023-04-20T20:43:12.169Z,90.40
2023-04-20T20:45:41.590Z,84.60
2023-04-20T20:48:09.001Z,83.07
2023-04-20T20:50:36.255Z,86.88
2023-04-20T20:53:05.911Z,81.55
2023-04-20T20:55:35.361Z,75.38
2023-04-20T20:58:02.745Z,74.28
2023-04-20T21:00:29.912Z,79.85
2023-04-20T21:02:57.539Z,76.88
2023-04-20T21:05:24.812Z,67.38
2023-04-20T21:07:54.444Z,74.13
2023-04-20T21:10:25.951Z,76.50
2023-04-20T21:12:53.573Z,75.38
2023-04-20T21:15:20.895Z,70.07
2023-04-20T21:17:50.842Z,69.78
2023-04-20T21:20:20.211Z,73.07
2023-04-20T21:22:49.912Z,66.65
2023-04-20T21:25:19.695Z,64.10
2023-04-20T21:27:47.134Z,55.78
2023-04-20T21:30:14.715Z,54.25
2023-04-20T21:32:47.622Z,61.67
2023-04-20T21:35:14.656Z,78.93
2023-04-20T21:37:42.101Z,58.33
2023-04-20T21:40:09.707Z,69.60
2023-04-20T21:42:37.081Z,64.13
2023-04-20T21:45:04.642Z,59.42
2023-04-20T21:47:32.069Z,62.17
2023-04-20T21:50:01.340Z,66.90
2023-04-20T21:52:28.682Z,68.20
2023-04-20T21:54:55.755Z,69.35
2023-04-20T21:57:23.151Z,67.80
2023-04-20T21:59:50.284Z,65.07
2023-04-20T22:02:17.772Z,67.60
2023-04-20T22:04:45.037Z,65.00
2023-04-20T22:07:15.390Z,69.95
2023-04-20T22:09:42.423Z,62.03
2023-04-20T22:12:09.823Z,73.72
2023-04-20T22:14:36.962Z,62.35
2023-04-20T22:17:04.288Z,59.63
2023-04-20T22:19:31.386Z,67.45
2023-04-20T22:21:58.722Z,60.42
2023-04-20T22:24:28.014Z,62.30
2023-04-20T22:26:55.402Z,59.03
2023-04-20T22:29:22.425Z,54.83
2023-04-20T22:31:49.789Z,54.67
2023-04-20T22:34:16.948Z,52.08
2023-04-20T22:36:44.392Z,40.90
2023-04-20T22:39:11.582Z,45.20
2023-04-20T22:41:42.005Z,39.35
2023-04-20T22:44:09.037Z,43.42
2023-04-20T22:46:36.376Z,40.05
2023-04-20T22:49:03.407Z,43.75
2023-04-20T22:51:30.727Z,45.72
2023-04-20T22:54:00.135Z,39.35
2023-04-20T22:56:27.668Z,42.95
2023-04-20T22:58:54.849Z,40.15
2023-04-20T23:01:22.277Z,43.53
2023-04-20T23:03:49.573Z,48.03
2023-04-20T23:06:19.184Z,40.25
2023-04-20T23:08:46.242Z,28.30
2023-04-20T23:11:13.903Z,29.67
2023-04-20T23:13:40.907Z,31.03
2023-04-20T23:16:10.556Z,36.20
2023-04-20T23:18:42.334Z,33.85
2023-04-20T23:21:09.730Z,33.63
2023-04-20T23:23:36.770Z,35.63
2023-04-20T23:26:04.192Z,34.15
2023-04-20T23:28:31.208Z,32.80
2023-04-20T23:30:58.535Z,32.75
2023-04-20T23:33:25.576Z,32.30
2023-04-20T23:35:52.881Z,35.80
2023-04-20T23:38:19.927Z,38.72
2023-04-20T23:40:49.521Z,36.00
2023-04-20T23:43:16.579Z,38.22
2023-04-20T23:45:44.000Z,39.20
2023-04-20T23:48:11.041Z,37.92
2023-04-20T23:50:38.366Z,33.47
2023-04-20T23:53:05.381Z,31.77
2023-04-20T23:55:32.910Z,31.63
2023-04-20T23:58:02.383Z,31.10
